createdAt,value
2017-01-14T00:00:08.491Z,-0.31
2017-01-14T00:01:08.481Z,-0.22
2017-01-14T00:02:08.460Z,-0.31
2017-01-14T00:03:08.829Z,-0.21
2017-01-14T00:04:08.427Z,-0.25
2017-01-14T00:05:08.817Z,-0.21
2017-01-14T00:06:08.422Z,-0.21
2017-01-14T00:07:08.385Z,-0.31
2017-01-14T00:08:08.361Z,-0.22
2017-01-14T00:09:08.345Z,-0.31
2017-01-14T00:10:08.329Z,-0.22
2017-01-14T00:11:08.314Z,-0.33
2017-01-14T00:12:08.298Z,-0.21
2017-01-14T00:13:08.282Z,-0.25
2017-01-14T00:14:08.269Z,-0.28
2017-01-14T00:15:08.255Z,-0.37
2017-01-14T00:16:08.233Z,-0.33
2017-01-14T00:17:08.221Z,-0.31
2017-01-14T00:18:08.204Z,-0.4
2017-01-14T00:19:08.185Z,-0.36
2017-01-14T00:20:08.173Z,-0.33
2017-01-14T00:21:08.155Z,-0.44
2017-01-14T00:22:08.139Z,-0.34
2017-01-14T00:23:08.122Z,-0.4
2017-01-14T00:24:08.107Z,-0.37
2017-01-14T00:25:08.092Z,-0.42
2017-01-14T00:26:08.072Z,-0.39
2017-01-14T00:27:08.059Z,-0.42
2017-01-14T00:28:08.044Z,-0.36
2017-01-14T00:29:08.032Z,-0.42
2017-01-14T00:30:08.010Z,-0.43
2017-01-14T00:31:07.995Z,-0.51
2017-01-14T00:32:08.364Z,-0.42
2017-01-14T00:33:07.963Z,-0.54
2017-01-14T00:34:07.946Z,-0.46
2017-01-14T00:35:07.930Z,-0.49
2017-01-14T00:36:07.915Z,-0.42
2017-01-14T00:37:07.900Z,-0.44
2017-01-14T00:38:07.880Z,-0.43
2017-01-14T00:39:07.864Z,-0.49
2017-01-14T00:40:08.238Z,-0.52
2017-01-14T00:41:07.835Z,-0.51
2017-01-14T00:42:07.817Z,-0.55
2017-01-14T00:43:07.800Z,-0.6
2017-01-14T00:44:07.785Z,-0.43
2017-01-14T00:45:07.767Z,-0.49
2017-01-14T00:46:07.754Z,-0.54
2017-01-14T00:47:07.738Z,-0.55
2017-01-14T00:48:07.727Z,-0.54
2017-01-14T00:49:07.702Z,-0.51
2017-01-14T00:50:07.690Z,-0.52
2017-01-14T00:51:07.670Z,-0.42
2017-01-14T00:52:07.658Z,-0.36
2017-01-14T00:53:07.638Z,-0.43
2017-01-14T00:54:08.411Z,-0.42
2017-01-14T00:55:07.627Z,-0.37
2017-01-14T00:56:07.588Z,-0.52
2017-01-14T00:57:07.573Z,-0.52
2017-01-14T00:58:07.586Z,-0.54
2017-01-14T00:59:07.541Z,-0.55
2017-01-14T01:00:07.527Z,-0.62
2017-01-14T01:01:07.898Z,-0.57
2017-01-14T01:02:07.492Z,-0.58
2017-01-14T01:03:07.476Z,-0.6
2017-01-14T01:04:07.460Z,-0.64
2017-01-14T01:05:07.447Z,-0.61
2017-01-14T01:06:07.431Z,-0.57
2017-01-14T01:07:07.418Z,-0.57
2017-01-14T01:08:07.402Z,-0.58
2017-01-14T01:09:07.400Z,-0.62
2017-01-14T01:10:07.367Z,-0.49
2017-01-14T01:11:07.350Z,-0.57
2017-01-14T01:12:07.722Z,-0.51
2017-01-14T01:13:07.616Z,-0.57
2017-01-14T01:14:07.299Z,-0.55
2017-01-14T01:15:07.285Z,-0.6
2017-01-14T01:16:07.267Z,-0.6
2017-01-14T01:17:07.251Z,-0.62
2017-01-14T01:18:07.237Z,-0.64
2017-01-14T01:19:07.217Z,-0.52
2017-01-14T01:20:07.203Z,-0.65
2017-01-14T01:21:07.184Z,-0.6
2017-01-14T01:22:07.195Z,-0.65
2017-01-14T01:23:07.153Z,-0.54
2017-01-14T01:24:07.142Z,-0.67
2017-01-14T01:25:07.121Z,-0.65
2017-01-14T01:26:07.102Z,-0.7
2017-01-14T01:27:07.485Z,-0.54
2017-01-14T01:28:07.071Z,-0.54
2017-01-14T01:29:07.058Z,-0.61
2017-01-14T01:30:07.041Z,-0.6
2017-01-14T01:31:07.023Z,-0.58
2017-01-14T01:32:07.010Z,-0.62
2017-01-14T01:33:07.378Z,-0.65
2017-01-14T01:34:06.972Z,-0.55
2017-01-14T01:35:06.963Z,-0.57
2017-01-14T01:36:06.963Z,-0.69
2017-01-14T01:37:06.926Z,-0.64
2017-01-14T01:38:06.906Z,-0.54
2017-01-14T01:39:06.894Z,-0.67
2017-01-14T01:40:06.873Z,-0.67
2017-01-14T01:41:06.861Z,-0.7
2017-01-14T01:42:06.843Z,-0.65
2017-01-14T01:43:06.824Z,-0.7
2017-01-14T01:44:06.812Z,-0.73
2017-01-14T01:45:06.799Z,-0.69
2017-01-14T01:46:07.164Z,-0.73
2017-01-14T01:47:06.761Z,-0.73
2017-01-14T01:48:06.745Z,-0.7
2017-01-14T01:49:06.753Z,-0.64
2017-01-14T01:50:06.713Z,-0.69
2017-01-14T01:51:06.696Z,-0.78
2017-01-14T01:52:06.676Z,-0.82
2017-01-14T01:53:06.662Z,-0.8
2017-01-14T01:54:06.644Z,-0.79
2017-01-14T01:55:06.631Z,-0.82
2017-01-14T01:56:06.613Z,-0.78
2017-01-14T01:57:06.599Z,-0.82
2017-01-14T01:58:06.578Z,-0.86
2017-01-14T01:59:06.566Z,-0.8
2017-01-14T02:00:06.546Z,-0.8
2017-01-14T02:01:06.528Z,-0.85
2017-01-14T02:02:06.522Z,-0.86
2017-01-14T02:03:06.529Z,-0.92
2017-01-14T02:04:06.481Z,-0.94
2017-01-14T02:05:06.464Z,-0.94
2017-01-14T02:06:06.448Z,-0.97
2017-01-14T02:07:06.438Z,-0.98
2017-01-14T02:08:06.415Z,-0.91
2017-01-14T02:09:06.399Z,-0.94
2017-01-14T02:10:06.387Z,-0.99
2017-01-14T02:11:06.364Z,-1.02
2017-01-14T02:12:06.349Z,-0.98
2017-01-14T02:13:06.334Z,-0.99
2017-01-14T02:14:06.314Z,-0.94
2017-01-14T02:15:06.301Z,-0.98
2017-01-14T02:16:06.284Z,-0.99
2017-01-14T02:17:06.265Z,-0.99
2017-01-14T02:18:06.252Z,-0.99
2017-01-14T02:19:06.234Z,-0.95
2017-01-14T02:20:06.220Z,-0.97
2017-01-14T02:21:06.199Z,-0.98
2017-01-14T02:22:06.189Z,-0.99
2017-01-14T02:23:06.170Z,-1.1
2017-01-14T02:24:06.154Z,-0.98
2017-01-14T02:25:06.153Z,-1.15
2017-01-14T02:26:06.120Z,-1.12
2017-01-14T02:27:06.102Z,-1.12
2017-01-14T02:28:06.082Z,-1.12
2017-01-14T02:29:06.070Z,-1.15
2017-01-14T02:30:06.052Z,-1.1
2017-01-14T02:31:06.036Z,-1.1
2017-01-14T02:32:06.017Z,-1.12
2017-01-14T02:33:06.003Z,-1.2
2017-01-14T02:34:05.985Z,-1.12
2017-01-14T02:35:05.970Z,-1.2
2017-01-14T02:36:05.954Z,-1.15
2017-01-14T02:37:05.935Z,-1.12
2017-01-14T02:38:05.921Z,-1.09
2017-01-14T02:39:05.904Z,-1.22
2017-01-14T02:40:05.888Z,-1.12
2017-01-14T02:41:05.869Z,-1.22
2017-01-14T02:42:05.852Z,-1.25
2017-01-14T02:43:05.835Z,-1.12
2017-01-14T02:44:05.822Z,-1.1
2017-01-14T02:45:05.804Z,-1.23
2017-01-14T02:46:05.786Z,-1.15
2017-01-14T02:47:05.768Z,-1.17
2017-01-14T02:48:06.155Z,-1.2
2017-01-14T02:49:05.737Z,-1.15
2017-01-14T02:50:05.806Z,-1.09
2017-01-14T02:51:05.701Z,-1.19
2017-01-14T02:52:05.722Z,-1.22
2017-01-14T02:53:05.874Z,-1.13
2017-01-14T02:54:05.654Z,-1.13
2017-01-14T02:55:05.638Z,-1.09
2017-01-14T02:56:05.619Z,-1.17
2017-01-14T02:57:05.602Z,-1.2
2017-01-14T02:58:05.587Z,-1.27
2017-01-14T02:59:05.572Z,-1.16
2017-01-14T03:00:05.553Z,-1.13
2017-01-14T03:01:05.545Z,-1.05
2017-01-14T03:02:05.521Z,-1.16
2017-01-14T03:03:05.502Z,-1.17
2017-01-14T03:04:05.487Z,-1.15
2017-01-14T03:05:05.468Z,-1.2
2017-01-14T03:06:05.455Z,-1.15
2017-01-14T03:07:05.438Z,-1.19
2017-01-14T03:08:05.428Z,-1.23
2017-01-14T03:09:05.404Z,-1.15
2017-01-14T03:10:05.779Z,-1.22
2017-01-14T03:11:05.372Z,-1.25
2017-01-14T03:12:05.359Z,-1.17
2017-01-14T03:13:05.337Z,-1.2
2017-01-14T03:14:05.319Z,-1.19
2017-01-14T03:15:05.303Z,-1.16
2017-01-14T03:16:05.285Z,-1.17
2017-01-14T03:17:05.298Z,-1.23
2017-01-14T03:18:05.251Z,-1.28
2017-01-14T03:19:05.242Z,-1.23
2017-01-14T03:20:05.220Z,-1.27
2017-01-14T03:21:05.204Z,-1.3
2017-01-14T03:22:05.185Z,-1.38
2017-01-14T03:23:05.558Z,-1.28
2017-01-14T03:24:05.158Z,-1.35
2017-01-14T03:25:05.136Z,-1.43
2017-01-14T03:26:05.118Z,-1.37
2017-01-14T03:27:05.103Z,-1.33
2017-01-14T03:28:05.086Z,-1.37
2017-01-14T03:29:05.070Z,-1.37
2017-01-14T03:30:05.060Z,-1.34
2017-01-14T03:31:05.037Z,-1.37
2017-01-14T03:32:05.018Z,-1.34
2017-01-14T03:33:05.005Z,-1.35
2017-01-14T03:34:04.984Z,-1.27
2017-01-14T03:35:04.972Z,-1.25
2017-01-14T03:36:04.951Z,-1.22
2017-01-14T03:37:04.934Z,-1.23
2017-01-14T03:38:04.917Z,-1.37
2017-01-14T03:39:04.902Z,-1.35
2017-01-14T03:40:04.885Z,-1.22
2017-01-14T03:41:04.867Z,-1.23
2017-01-14T03:42:04.852Z,-1.22
2017-01-14T03:43:05.225Z,-1.25
2017-01-14T03:44:04.824Z,-1.22
2017-01-14T03:45:04.799Z,-1.25
2017-01-14T03:46:04.783Z,-1.27
2017-01-14T03:47:04.768Z,-1.22
2017-01-14T03:48:04.752Z,-1.27
2017-01-14T03:49:04.734Z,-1.16
2017-01-14T03:50:04.718Z,-1.22
2017-01-14T03:51:04.704Z,-1.12
2017-01-14T03:52:04.687Z,-0.95
2017-01-14T03:53:04.669Z,-0.91
2017-01-14T03:54:04.649Z,-0.85
2017-01-14T03:55:04.633Z,-0.78
2017-01-14T03:56:04.617Z,-0.76
2017-01-14T03:57:04.600Z,-0.73
2017-01-14T03:58:04.608Z,-0.58
2017-01-14T03:59:04.567Z,-0.6
2017-01-14T04:00:04.554Z,-0.46
2017-01-14T04:01:04.535Z,-0.46
2017-01-14T04:02:04.517Z,-0.43
2017-01-14T04:03:04.503Z,-0.46
2017-01-14T04:04:04.484Z,-0.37
2017-01-14T04:05:04.472Z,-0.26
2017-01-14T04:06:04.450Z,-0.22
2017-01-14T04:07:04.436Z,-0.26
2017-01-14T04:08:04.418Z,-0.26
2017-01-14T04:09:04.404Z,-0.11
2017-01-14T04:10:04.388Z,-0.18
2017-01-14T04:11:04.368Z,-0.15
2017-01-14T04:12:04.352Z,-0.03
2017-01-14T04:13:04.341Z,-0.05
2017-01-14T04:14:04.321Z,-0.04
2017-01-14T04:15:04.305Z,0.11
2017-01-14T04:16:04.289Z,0.07
2017-01-14T04:17:04.272Z,0.17
2017-01-14T04:18:04.258Z,0.13
2017-01-14T04:19:04.240Z,0.2
2017-01-14T04:20:04.223Z,0.21
2017-01-14T04:21:04.211Z,0.2
2017-01-14T04:22:04.193Z,0.28
2017-01-14T04:23:04.175Z,0.33
2017-01-14T04:24:04.160Z,0.32
2017-01-14T04:25:04.146Z,0.39
2017-01-14T04:26:04.134Z,0.35
2017-01-14T04:27:04.114Z,0.49
2017-01-14T04:28:04.098Z,0.44
2017-01-14T04:29:04.081Z,0.44
2017-01-14T04:30:04.067Z,0.49
2017-01-14T04:31:04.051Z,0.49
2017-01-14T04:32:04.034Z,0.51
2017-01-14T04:33:04.020Z,0.57
2017-01-14T04:34:04.006Z,0.61
2017-01-14T04:35:03.987Z,0.61
2017-01-14T04:36:03.975Z,0.62
2017-01-14T04:37:03.956Z,0.65
2017-01-14T04:38:03.947Z,0.76
2017-01-14T04:39:03.929Z,0.83
2017-01-14T04:40:03.913Z,0.76
2017-01-14T04:41:03.895Z,0.8
2017-01-14T04:42:03.881Z,0.87
2017-01-14T04:43:03.867Z,0.8
2017-01-14T04:44:03.849Z,0.86
2017-01-14T04:45:03.836Z,0.93
2017-01-14T04:46:03.821Z,0.8
2017-01-14T04:47:03.803Z,0.98
2017-01-14T04:48:03.789Z,0.94
2017-01-14T04:49:03.776Z,0.94
2017-01-14T04:50:03.761Z,0.98
2017-01-14T04:51:03.743Z,1.06
2017-01-14T04:52:03.727Z,1.09
2017-01-14T04:53:03.709Z,1.11
2017-01-14T04:54:03.698Z,1.16
2017-01-14T04:55:03.682Z,1.3
2017-01-14T04:56:03.667Z,1.37
2017-01-14T04:57:03.649Z,1.36
2017-01-14T04:58:03.635Z,1.3
2017-01-14T04:59:03.622Z,1.42
2017-01-14T05:00:03.605Z,1.41
2017-01-14T05:01:03.592Z,1.51
2017-01-14T05:02:03.574Z,1.51
2017-01-14T05:03:03.564Z,1.58
2017-01-14T05:04:03.546Z,1.6
2017-01-14T05:05:03.533Z,1.62
2017-01-14T05:06:03.515Z,1.7
2017-01-14T05:07:03.506Z,1.66
2017-01-14T05:08:03.484Z,1.66
2017-01-14T05:09:03.503Z,1.7
2017-01-14T05:10:03.456Z,1.73
2017-01-14T05:11:03.465Z,1.81
2017-01-14T05:12:03.428Z,1.77
2017-01-14T05:13:03.413Z,1.76
2017-01-14T05:14:03.397Z,1.77
2017-01-14T05:15:03.383Z,1.76
2017-01-14T05:16:03.365Z,1.81
2017-01-14T05:17:03.356Z,1.93
2017-01-14T05:18:03.341Z,1.98
2017-01-14T05:19:03.329Z,1.98
2017-01-14T05:20:03.309Z,1.93
2017-01-14T05:21:03.293Z,2.03
2017-01-14T05:22:03.281Z,2.05
2017-01-14T05:23:03.267Z,2.09
2017-01-14T05:24:03.253Z,2.06
2017-01-14T05:25:03.240Z,2.14
2017-01-14T05:26:03.230Z,2.1
2017-01-14T05:27:03.206Z,2.2
2017-01-14T05:28:03.194Z,2.17
2017-01-14T05:29:03.181Z,2.2
2017-01-14T05:30:03.161Z,2.18
2017-01-14T05:31:03.151Z,2.1
2017-01-14T05:32:03.133Z,2.06
2017-01-14T05:33:03.121Z,2.1
2017-01-14T05:34:03.108Z,2.24
2017-01-14T05:35:03.090Z,2.2
2017-01-14T05:36:03.079Z,2.25
2017-01-14T05:37:03.063Z,2.34
2017-01-14T05:38:03.050Z,2.34
2017-01-14T05:39:03.037Z,2.34
2017-01-14T05:40:03.023Z,2.23
2017-01-14T05:41:03.011Z,2.31
2017-01-14T05:42:02.990Z,2.31
2017-01-14T05:43:03.006Z,2.23
2017-01-14T05:44:02.959Z,2.23
2017-01-14T05:45:02.949Z,2.17
2017-01-14T05:46:02.957Z,2.18
2017-01-14T05:47:02.921Z,2.09
2017-01-14T05:48:02.903Z,2.06
2017-01-14T05:49:02.889Z,2.06
2017-01-14T05:50:02.874Z,2.14
2017-01-14T05:51:02.863Z,2.05
2017-01-14T05:52:02.849Z,2.12
2017-01-14T05:53:02.834Z,2.14
2017-01-14T05:54:02.818Z,2.14
2017-01-14T05:55:02.801Z,2.12
2017-01-14T05:56:02.791Z,2.16
2017-01-14T05:57:02.774Z,2.1
2017-01-14T05:58:02.760Z,2.12
2017-01-14T05:59:03.135Z,2.21
2017-01-14T06:00:02.732Z,2.17
2017-01-14T06:01:02.718Z,2.28
2017-01-14T06:02:02.703Z,2.24
2017-01-14T06:03:02.692Z,2.34
2017-01-14T06:04:02.677Z,2.31
2017-01-14T06:05:02.662Z,2.24
2017-01-14T06:06:02.650Z,2.36
2017-01-14T06:07:02.636Z,2.35
2017-01-14T06:08:02.618Z,2.36
2017-01-14T06:09:02.606Z,2.3
2017-01-14T06:10:02.591Z,2.39
2017-01-14T06:11:02.579Z,2.35
2017-01-14T06:12:02.563Z,2.38
2017-01-14T06:13:02.548Z,2.38
2017-01-14T06:14:02.544Z,2.28
2017-01-14T06:15:02.521Z,2.36
2017-01-14T06:16:02.506Z,2.28
2017-01-14T06:17:02.492Z,2.36
2017-01-14T06:18:02.475Z,2.18
2017-01-14T06:19:02.464Z,2.18
2017-01-14T06:20:02.447Z,2.16
2017-01-14T06:21:02.436Z,2.06
2017-01-14T06:22:02.421Z,2.06
2017-01-14T06:23:02.404Z,2.16
2017-01-14T06:24:02.393Z,2.14
2017-01-14T06:25:02.378Z,2.14
2017-01-14T06:26:02.361Z,2.05
2017-01-14T06:27:02.349Z,2.06
2017-01-14T06:28:02.334Z,2.1
2017-01-14T06:29:02.317Z,2
2017-01-14T06:30:02.307Z,1.91
2017-01-14T06:31:02.290Z,1.9
2017-01-14T06:32:02.280Z,1.79
2017-01-14T06:33:02.260Z,1.77
2017-01-14T06:34:02.247Z,1.8
2017-01-14T06:35:02.233Z,1.83
2017-01-14T06:36:02.218Z,1.83
2017-01-14T06:37:02.206Z,1.76
2017-01-14T06:38:02.189Z,1.93
2017-01-14T06:39:02.173Z,1.87
2017-01-14T06:40:02.160Z,1.93
2017-01-14T06:41:02.148Z,1.88
2017-01-14T06:42:02.131Z,1.88
2017-01-14T06:43:02.116Z,1.95
2017-01-14T06:44:02.101Z,1.91
2017-01-14T06:45:02.087Z,1.93
2017-01-14T06:46:02.075Z,2.07
2017-01-14T06:47:02.056Z,1.91
2017-01-14T06:48:02.044Z,2.02
2017-01-14T06:49:02.035Z,1.9
2017-01-14T06:50:02.016Z,1.98
2017-01-14T06:51:01.998Z,1.91
2017-01-14T06:52:01.984Z,2.06
2017-01-14T06:53:01.971Z,2.05
2017-01-14T06:54:01.957Z,2.09
2017-01-14T06:55:01.944Z,2.14
2017-01-14T06:56:01.958Z,2.17
2017-01-14T06:57:01.915Z,2.12
2017-01-14T06:58:01.898Z,2.1
2017-01-14T06:59:01.885Z,2.07
2017-01-14T07:00:01.868Z,2.1
2017-01-14T07:01:01.854Z,2.16
2017-01-14T07:02:01.840Z,2.06
2017-01-14T07:03:01.835Z,2.06
2017-01-14T07:04:01.814Z,2.09
2017-01-14T07:05:01.795Z,2.02
2017-01-14T07:06:01.784Z,1.99
2017-01-14T07:07:01.768Z,1.93
2017-01-14T07:08:01.755Z,1.93
2017-01-14T07:09:01.739Z,1.93
2017-01-14T07:10:01.733Z,1.87
2017-01-14T07:11:01.711Z,1.84
2017-01-14T07:12:01.694Z,1.81
2017-01-14T07:13:01.688Z,1.8
2017-01-14T07:14:01.667Z,1.81
2017-01-14T07:15:01.653Z,1.81
2017-01-14T07:16:01.636Z,1.81
2017-01-14T07:17:01.626Z,1.8
2017-01-14T07:18:01.611Z,1.8
2017-01-14T07:19:01.593Z,1.81
2017-01-14T07:20:01.578Z,1.77
2017-01-14T07:21:01.565Z,1.83
2017-01-14T07:22:01.550Z,1.91
2017-01-14T07:23:01.538Z,1.86
2017-01-14T07:24:01.520Z,1.91
2017-01-14T07:25:01.508Z,1.95
2017-01-14T07:26:01.496Z,1.84
2017-01-14T07:27:01.479Z,1.81
2017-01-14T07:28:01.474Z,1.81
2017-01-14T07:29:01.452Z,1.88
2017-01-14T07:30:01.434Z,1.91
2017-01-14T07:31:01.424Z,1.93
2017-01-14T07:32:01.406Z,2.02
2017-01-14T07:33:01.396Z,2.1
2017-01-14T07:34:01.381Z,2.02
2017-01-14T07:35:01.362Z,2.07
2017-01-14T07:36:01.352Z,2.06
2017-01-14T07:37:01.343Z,2.03
2017-01-14T07:38:01.328Z,2.05
2017-01-14T07:39:01.308Z,1.91
2017-01-14T07:40:01.294Z,2.02
2017-01-14T07:41:01.279Z,1.87
2017-01-14T07:42:01.268Z,2.05
2017-01-14T07:43:01.253Z,2
2017-01-14T07:44:01.238Z,1.91
2017-01-14T07:45:01.225Z,1.95
2017-01-14T07:46:01.208Z,2.09
2017-01-14T07:47:01.194Z,2.12
2017-01-14T07:48:01.183Z,2.1
2017-01-14T07:49:01.165Z,2.17
2017-01-14T07:50:01.170Z,2.39
2017-01-14T07:51:01.139Z,2.35
2017-01-14T07:52:01.124Z,2.38
2017-01-14T07:53:01.109Z,2.41
2017-01-14T07:54:01.096Z,2.38
2017-01-14T07:55:01.088Z,2.36
2017-01-14T07:56:01.064Z,2.43
2017-01-14T07:57:01.053Z,2.41
2017-01-14T07:58:01.038Z,2.59
2017-01-14T07:59:01.030Z,2.52
2017-01-14T08:00:01.010Z,2.52
2017-01-14T08:01:00.996Z,2.54
2017-01-14T08:02:00.982Z,2.57
2017-01-14T08:03:00.969Z,2.69
2017-01-14T08:04:00.955Z,2.69
2017-01-14T08:05:00.940Z,2.81
2017-01-14T08:06:00.927Z,2.89
2017-01-14T08:07:00.910Z,2.9
2017-01-14T08:08:00.921Z,2.89
2017-01-14T08:09:00.890Z,2.95
2017-01-14T08:10:00.871Z,3
2017-01-14T08:11:00.859Z,3.15
2017-01-14T08:12:00.845Z,3.1
2017-01-14T08:13:00.831Z,3.24
2017-01-14T08:14:00.817Z,3.26
2017-01-14T08:15:00.801Z,3.26
2017-01-14T08:16:00.789Z,3.29
2017-01-14T08:17:00.777Z,3.33
2017-01-14T08:18:00.763Z,3.35
2017-01-14T08:19:00.753Z,3.39
2017-01-14T08:20:00.735Z,3.45
2017-01-14T08:21:00.723Z,3.55
2017-01-14T08:22:00.714Z,3.62
2017-01-14T08:23:00.696Z,3.69
2017-01-14T08:24:00.684Z,3.69
2017-01-14T08:25:00.668Z,3.76
2017-01-14T08:26:00.658Z,3.75
2017-01-14T08:27:00.642Z,3.87
2017-01-14T08:28:00.630Z,4
2017-01-14T08:29:00.649Z,3.91
2017-01-14T08:30:00.603Z,3.88
2017-01-14T08:31:00.591Z,3.91
2017-01-14T08:32:00.579Z,3.93
2017-01-14T08:33:00.568Z,3.93
2017-01-14T08:34:00.551Z,4.02
2017-01-14T08:35:00.929Z,3.96
2017-01-14T08:36:00.526Z,4
2017-01-14T08:37:00.512Z,4.04
2017-01-14T08:38:00.886Z,4.08
2017-01-14T08:39:00.487Z,3.98
2017-01-14T08:40:00.774Z,4.06
2017-01-14T08:41:00.465Z,3.98
2017-01-14T08:42:00.450Z,3.93
2017-01-14T08:43:00.437Z,3.96
2017-01-14T08:44:00.423Z,4
2017-01-14T08:45:00.415Z,3.98
2017-01-14T08:46:00.398Z,4
2017-01-14T08:47:00.385Z,4
2017-01-14T08:48:00.372Z,4.04
2017-01-14T08:49:00.358Z,4
2017-01-14T08:50:00.349Z,3.96
2017-01-14T08:51:00.334Z,3.96
2017-01-14T08:52:00.321Z,3.94
2017-01-14T08:53:00.311Z,3.97
2017-01-14T08:54:00.297Z,3.97
2017-01-14T08:55:00.282Z,3.97
2017-01-14T08:56:00.272Z,3.94
2017-01-14T08:57:00.257Z,3.98
2017-01-14T08:58:00.243Z,3.98
2017-01-14T08:59:00.232Z,4.11
2017-01-14T09:00:00.609Z,4.14
2017-01-14T09:01:00.210Z,4.06
2017-01-14T09:02:00.195Z,4.11
2017-01-14T09:03:00.184Z,4.09
2017-01-14T09:04:00.170Z,4.16
2017-01-14T09:05:00.157Z,4.12
2017-01-14T09:06:00.143Z,4.15
2017-01-14T09:07:00.132Z,4.16
2017-01-14T09:08:00.118Z,4.15
2017-01-14T09:09:00.107Z,4.16
2017-01-14T09:10:00.093Z,4.18
2017-01-14T09:11:00.085Z,4.15
2017-01-14T09:12:00.069Z,4.26
2017-01-14T09:13:00.055Z,4.29
2017-01-14T09:14:00.043Z,4.32
2017-01-14T09:15:00.035Z,4.33
2017-01-14T09:16:00.017Z,4.37
2017-01-14T09:17:00.004Z,4.26
2017-01-14T09:17:59.995Z,4.26
2017-01-14T09:18:59.978Z,4.26
2017-01-14T09:19:59.971Z,4.2
2017-01-14T09:20:59.960Z,4.33
2017-01-14T09:21:59.980Z,4.33
2017-01-14T09:22:59.929Z,4.36
2017-01-14T09:23:59.915Z,4.52
2017-01-14T09:24:59.906Z,4.55
2017-01-14T09:25:59.892Z,4.62
2017-01-14T09:26:59.881Z,4.72
2017-01-14T09:27:59.869Z,4.67
2017-01-14T09:29:00.241Z,4.73
2017-01-14T09:29:59.846Z,4.86
2017-01-14T09:30:59.829Z,4.86
2017-01-14T09:31:59.820Z,4.94
2017-01-14T09:32:59.807Z,4.99
2017-01-14T09:33:59.798Z,4.96
2017-01-14T09:34:59.789Z,4.94
2017-01-14T09:35:59.774Z,4.94
2017-01-14T09:36:59.756Z,5
2017-01-14T09:37:59.745Z,4.91
2017-01-14T09:38:59.735Z,4.97
2017-01-14T09:39:59.724Z,5.09
2017-01-14T09:40:59.711Z,5.1
2017-01-14T09:41:59.698Z,5.1
2017-01-14T09:42:59.685Z,5.25
2017-01-14T09:43:59.677Z,5.28
2017-01-14T09:44:59.660Z,5.28
2017-01-14T09:45:59.648Z,5.33
2017-01-14T09:46:59.641Z,5.22
2017-01-14T09:47:59.627Z,5.28
2017-01-14T09:48:59.619Z,5.28
2017-01-14T09:49:59.605Z,5.25
2017-01-14T09:50:59.591Z,5.24
2017-01-14T09:51:59.580Z,5.21
2017-01-14T09:52:59.573Z,5.2
2017-01-14T09:53:59.556Z,5.07
2017-01-14T09:54:59.545Z,5.03
2017-01-14T09:55:59.534Z,5.04
2017-01-14T09:56:59.520Z,4.94
2017-01-14T09:57:59.511Z,4.77
2017-01-14T09:58:59.498Z,4.7
2017-01-14T09:59:59.485Z,4.78
2017-01-14T10:00:59.474Z,4.7
2017-01-14T10:01:59.459Z,4.6
2017-01-14T10:02:59.453Z,4.54
2017-01-14T10:03:59.442Z,4.47
2017-01-14T10:04:59.426Z,4.42
2017-01-14T10:05:59.415Z,4.34
2017-01-14T10:06:59.402Z,4.33
2017-01-14T10:07:59.387Z,4.3
2017-01-14T10:08:59.375Z,4.29
2017-01-14T10:09:59.368Z,4.24
2017-01-14T10:10:59.353Z,4.29
2017-01-14T10:11:59.341Z,4.23
2017-01-14T10:12:59.326Z,4.29
2017-01-14T10:13:59.320Z,4.24
2017-01-14T10:14:59.301Z,4.22
2017-01-14T10:15:59.318Z,4.29
2017-01-14T10:16:59.279Z,4.24
2017-01-14T10:17:59.267Z,4.27
2017-01-14T10:18:59.254Z,4.24
2017-01-14T10:19:59.242Z,4.24
2017-01-14T10:20:59.614Z,4.18
2017-01-14T10:21:59.219Z,4.15
2017-01-14T10:22:59.206Z,4.18
2017-01-14T10:23:59.192Z,4.08
2017-01-14T10:24:59.572Z,4.15
2017-01-14T10:25:59.166Z,4.09
2017-01-14T10:26:59.165Z,4.11
2017-01-14T10:27:59.144Z,4.23
2017-01-14T10:28:59.131Z,4.3
2017-01-14T10:29:59.120Z,4.32
2017-01-14T10:30:59.108Z,4.34
2017-01-14T10:31:59.102Z,4.36
2017-01-14T10:32:59.081Z,4.34
2017-01-14T10:33:59.070Z,4.37
2017-01-14T10:34:59.056Z,4.37
2017-01-14T10:35:59.050Z,4.45
2017-01-14T10:36:59.032Z,4.5
2017-01-14T10:37:59.018Z,4.5
2017-01-14T10:38:59.010Z,4.48
2017-01-14T10:39:58.996Z,4.34
2017-01-14T10:40:58.982Z,4.4
2017-01-14T10:41:58.968Z,4.4
2017-01-14T10:42:58.962Z,4.41
2017-01-14T10:43:58.947Z,4.42
2017-01-14T10:44:58.934Z,4.33
2017-01-14T10:45:58.924Z,4.26
2017-01-14T10:46:58.911Z,4.29
2017-01-14T10:47:58.897Z,4.27
2017-01-14T10:48:58.887Z,4.23
2017-01-14T10:49:58.872Z,4.22
2017-01-14T10:50:58.861Z,4.24
2017-01-14T10:51:58.849Z,4.22
2017-01-14T10:52:58.836Z,4.3
2017-01-14T10:53:59.213Z,4.3
2017-01-14T10:54:58.818Z,4.24
2017-01-14T10:55:58.800Z,4.29
2017-01-14T10:56:58.786Z,4.26
2017-01-14T10:57:58.772Z,4.33
2017-01-14T10:58:58.761Z,4.32
2017-01-14T10:59:58.749Z,4.41
2017-01-14T11:00:58.739Z,4.34
2017-01-14T11:01:58.731Z,4.48
2017-01-14T11:02:58.720Z,4.52
2017-01-14T11:03:58.702Z,4.54
2017-01-14T11:04:58.688Z,4.51
2017-01-14T11:05:58.677Z,4.6
2017-01-14T11:06:58.664Z,4.7
2017-01-14T11:07:58.651Z,4.67
2017-01-14T11:08:58.655Z,4.75
2017-01-14T11:09:58.628Z,4.69
2017-01-14T11:10:58.618Z,4.8
2017-01-14T11:11:58.612Z,4.85
2017-01-14T11:12:58.608Z,4.86
2017-01-14T11:13:58.578Z,4.82
2017-01-14T11:14:58.567Z,4.84
2017-01-14T11:15:58.555Z,4.88
2017-01-14T11:16:58.548Z,4.88
2017-01-14T11:17:58.528Z,4.78
2017-01-14T11:18:58.521Z,4.75
2017-01-14T11:19:58.512Z,4.84
2017-01-14T11:20:58.495Z,4.78
2017-01-14T11:21:58.484Z,4.8
2017-01-14T11:22:58.470Z,4.84
2017-01-14T11:23:58.459Z,4.92
2017-01-14T11:24:58.449Z,4.92
2017-01-14T11:25:58.433Z,4.89
2017-01-14T11:26:58.421Z,4.92
2017-01-14T11:27:58.413Z,4.92
2017-01-14T11:28:58.428Z,4.86
2017-01-14T11:29:58.413Z,4.96
2017-01-14T11:30:58.375Z,4.86
2017-01-14T11:31:58.361Z,4.97
2017-01-14T11:32:58.353Z,4.97
2017-01-14T11:33:58.339Z,5.09
2017-01-14T11:34:58.326Z,5.04
2017-01-14T11:35:58.313Z,5.06
2017-01-14T11:36:58.303Z,5.03
2017-01-14T11:37:58.291Z,5.07
2017-01-14T11:38:58.277Z,5.13
2017-01-14T11:39:58.269Z,5.13
2017-01-14T11:40:58.257Z,5.15
2017-01-14T11:41:58.244Z,5.21
2017-01-14T11:42:58.230Z,5.28
2017-01-14T11:43:58.218Z,5.2
2017-01-14T11:44:58.206Z,5.22
2017-01-14T11:45:58.193Z,5.21
2017-01-14T11:46:58.183Z,5.17
2017-01-14T11:47:58.173Z,5.2
2017-01-14T11:48:58.167Z,5.15
2017-01-14T11:49:58.145Z,5.07
2017-01-14T11:50:58.135Z,5.13
2017-01-14T11:51:58.128Z,5.06
2017-01-14T11:52:58.526Z,5.04
2017-01-14T11:53:58.104Z,5.03
2017-01-14T11:54:58.099Z,5.04
2017-01-14T11:55:58.073Z,5.02
2017-01-14T11:56:58.062Z,4.99
2017-01-14T11:57:58.442Z,4.96
2017-01-14T11:58:58.063Z,4.94
2017-01-14T11:59:58.029Z,4.99
2017-01-14T12:00:58.401Z,4.89
2017-01-14T12:01:58.003Z,4.91
2017-01-14T12:02:58.023Z,4.89
2017-01-14T12:03:57.982Z,4.96
2017-01-14T12:04:57.968Z,4.91
2017-01-14T12:05:57.956Z,4.94
2017-01-14T12:06:57.943Z,4.94
2017-01-14T12:07:57.930Z,4.91
2017-01-14T12:08:57.921Z,5
2017-01-14T12:09:57.908Z,4.92
2017-01-14T12:10:57.899Z,4.97
2017-01-14T12:11:57.884Z,4.94
2017-01-14T12:12:57.906Z,4.92
2017-01-14T12:13:57.860Z,4.89
2017-01-14T12:14:57.844Z,4.89
2017-01-14T12:15:57.836Z,4.96
2017-01-14T12:16:57.826Z,4.97
2017-01-14T12:17:57.811Z,4.99
2017-01-14T12:18:57.797Z,5.02
2017-01-14T12:19:57.787Z,5.15
2017-01-14T12:20:57.776Z,5.13
2017-01-14T12:21:57.792Z,5.17
2017-01-14T12:22:57.752Z,5.18
2017-01-14T12:23:57.743Z,5.22
2017-01-14T12:24:57.731Z,5.25
2017-01-14T12:25:57.715Z,5.25
2017-01-14T12:26:57.705Z,5.28
2017-01-14T12:27:57.693Z,5.18
2017-01-14T12:28:57.680Z,5.2
2017-01-14T12:29:57.669Z,5.18
2017-01-14T12:30:57.657Z,5
2017-01-14T12:31:57.646Z,5.03
2017-01-14T12:32:57.936Z,5.04
2017-01-14T12:33:57.622Z,4.92
2017-01-14T12:34:57.610Z,4.86
2017-01-14T12:35:57.597Z,4.85
2017-01-14T12:36:57.587Z,4.73
2017-01-14T12:37:57.577Z,4.7
2017-01-14T12:38:57.562Z,4.65
2017-01-14T12:39:57.552Z,4.62
2017-01-14T12:40:57.539Z,4.66
2017-01-14T12:41:57.526Z,4.51
2017-01-14T12:42:57.521Z,4.51
2017-01-14T12:43:57.932Z,4.51
2017-01-14T12:44:57.489Z,4.5
2017-01-14T12:45:57.486Z,4.52
2017-01-14T12:46:57.472Z,4.52
2017-01-14T12:47:57.455Z,4.44
2017-01-14T12:48:57.441Z,4.45
2017-01-14T12:49:57.427Z,4.48
2017-01-14T12:50:57.421Z,4.5
2017-01-14T12:51:57.407Z,4.5
2017-01-14T12:52:57.394Z,4.5
2017-01-14T12:53:57.379Z,4.47
2017-01-14T12:54:57.763Z,4.5
2017-01-14T12:55:57.359Z,4.48
2017-01-14T12:56:57.340Z,4.4
2017-01-14T12:57:57.347Z,4.37
2017-01-14T12:58:57.319Z,4.41
2017-01-14T12:59:57.307Z,4.34
2017-01-14T13:00:57.296Z,4.42
2017-01-14T13:01:57.285Z,4.41
2017-01-14T13:02:57.272Z,4.3
2017-01-14T13:03:57.259Z,4.24
2017-01-14T13:04:57.250Z,4.3
2017-01-14T13:05:57.236Z,4.29
2017-01-14T13:06:57.223Z,4.29
2017-01-14T13:07:57.599Z,4.22
2017-01-14T13:08:57.194Z,4.23
2017-01-14T13:09:57.193Z,4.29
2017-01-14T13:10:57.174Z,4.27
2017-01-14T13:11:57.157Z,4.32
2017-01-14T13:12:57.146Z,4.23
2017-01-14T13:13:57.134Z,4.29